Montecanal, Spain
Current Conditions -  °F | °C
As of 3:30 PM on Sunday 23 Nov 2014 (Local Time) from LEZG Reporting Station
Clear Clear  
Wind Chill: 66°   Ceiling: Unl
Heat Index: 66°   Visibility: 6mi
Dew Point: 55°   Wind: 14mph
Humidity: 68%   Direction: 120°ESE
Pressure: 29.94"   Gusts: NA
Location:  41.63°N, 0.94°W
Report Text: LEZG 231430Z 12012KT 090V150 CAVOK 19/13 Q1014
Loading
Personal Weather Stations






























Interactive Weather Map New forecast layout! Learn more

10-Day Weather Forecast

Advertisements
Track Severe Weather on mobile